Main page
METAR-TAF:

METAR-TAF

Airports :

Porto Airport

Porto, Portugal

latitude: 41-14N, longitude: 008-41W, elevation: 69 m

Current weather observation

The report was made 43 minutes ago, at 04:00 UTC
Wind 10 kt from the East
Temperature 23°C
Humidity 50%
Pressure 1021 hPa
Visibility 10 km or more
no clouds below 1500 m and no cumulonimbus

METAR: LPPR 260400Z 10010KT CAVOK 23/12 Q1021

Time: 05:43 (04:43 UTC)

Forecast

The report was made 5 hours and 43 minutes ago, at 23:00 UTC
Forecast valid from 26 at 00 UTC to 26 at 24 UTC
Wind 2 kt from variable directions
Visibility 10 km or more
no clouds below 1500 m and no cumulonimbus
Becoming
from 26 at 02 UTC to 26 at 05 UTC
Wind 10 kt from the East
Becoming
from 26 at 13 UTC to 26 at 15 UTC
Wind 8 kt from the West/Northwest
Becoming
from 26 at 20 UTC to 26 at 22 UTC
Wind 2 kt from variable directions

TAF: LPPR 252300Z 2600/2624 VRB02KT CAVOK BECMG 2602/2605 08010KT BECMG 2613/2615 30008KT BECMG 2620/2622 VRB02KT

Weather observations and forecasts of more than 4000 airports (METAR and TAF reports).

The available stations are represented by yellow and red dots on the map.

Hover mouse over dot to see the name of the station.

Then click to see weather observations and forecasts.

To change the map : click on the green buttons with a black cross to zoom in, on the green button with a dash to zoom out, or on the green arrows for adjacent maps.


METAR-TAF: